ADDS METAR Data INFO
IDs: Format: Raw Decoded Include TAF

Data at: 0918 UTC 13 Dec 2017

KSUX 130852Z AUTO 28009KT 10SM CLR M02/M06 A2958 RMK AO2 SLP025 T10221061 56035
KSUX 130752Z AUTO 11004KT 10SM CLR M05/M07 A2959 RMK AO2 SLP032 T10501072
KSUX 130652Z AUTO 18003KT 10SM CLR M03/M06 A2963 RMK AO2 PRESFR SLP044 T10331061
KSUX 130552Z AUTO 17004KT 10SM CLR M04/M07 A2968 RMK AO2 SLP065 T10391067 10022 21044 400721117 58041
KSUX 130452Z AUTO 13006KT 10SM CLR M04/M06 A2972 RMK AO2 SLP080 T10391061
KSUX 130352Z AUTO 09006KT 10SM CLR M03/M06 A2977 RMK AO2 SLP096 LAST T10331061
KSUX 130259Z 10006KT 10SM CLR M03/M06 A2980 RMK AO2 LAST T10331061
KSUX 130252Z 09007KT 10SM CLR M03/M06 A2981 RMK AO2 SLP111 T10281061 58039
KSUX 130152Z 11005KT 10SM CLR M02/M06 A2988 RMK AO2 SLP135 T10221056
KSUX 130052Z 13006KT 10SM CLR M01/M05 A2990 RMK AO2 SLP143 T10111050
KSUX 122352Z 19004KT 10SM CLR 01/M05 A2993 RMK AO2 SLP151 T00061050 10072 20000 58038
KSUX 122252Z 21008KT 10SM CLR 04/M03 A2996 RMK AO2 PRESFR SLP161 T00391033
KSUX 122152Z 25006KT 10SM CLR 07/M02 A3002 RMK AO2 SLP179 T00721022
KSUX 122052Z 23010KT 10SM CLR 06/M02 A3004 RMK AO2 SLP188 T00611017 57053
KSUX 121952Z 20007KT 10SM SCT035 04/M03 A3010 RMK AO2 SLP208 T00441028
KSUX 121856Z 21008KT 10SM SCT035 03/M03 A3014 RMK AO2 T00281033
KSUX 121852Z 21010KT 10SM BKN036 02/M03 A3015 RMK AO2 SLP224 T00221033
KSUX 121752Z 20006KT 10SM BKN036 00/M06 A3021 RMK AO2 SLP244 I6000 T00001056 10000 21117 58029
KSUX 121652Z 19003KT 10SM CLR M03/M07 A3025 RMK AO2 SLP260 T10331067
KSUX 121552Z 00000KT 10SM CLR M06/M08 A3027 RMK AO2 SLP268 T10611078
KSUX 121452Z 00000KT 10SM FEW030 M08/M10 A3029 RMK AO2 SLP276 I3000 T10831100 58013
KSUX 121352Z 27004KT 10SM BKN031 M11/M12 A3030 RMK AO2 SLP280 I1000 T11111122
KSUX 121252Z 28005KT 10SM CLR M11/M12 A3032 RMK AO2 SLP286 T11061122
KSUX 121152Z 32003KT 10SM CLR M12/M12 A3033 RMK AO2 SLP289 T11171122 11067 21117 56008
KSUX 121052Z AUTO 29007KT 10SM CLR M11/M12 A3034 RMK AO2 SLP290 T11061122
KSUX 120952Z AUTO 30007KT 10SM CLR M11/M12 A3033 RMK AO2 SLP288 T11061117
KSUX 120852Z AUTO 30006KT 10SM CLR M10/M12 A3036 RMK AO2 SLP295 T11001117 58004
KSUX 120752Z AUTO 32006KT 10SM CLR M09/M11 A3037 RMK AO2 SLP298 T10891106
KSUX 120652Z AUTO 31005KT 10SM CLR M09/M11 A3036 RMK AO2 SLP296 T10891106
KSUX 120552Z AUTO 34012KT 10SM CLR M07/M11 A3037 RMK AO2 SLP297 T10721106 10011 21072 400721072 51022
KSUX 120452Z AUTO 35013KT 10SM CLR M06/M09 A3036 RMK AO2 SLP293 T10561094
KSUX 120352Z AUTO 35012G18KT 10SM CLR M04/M08 A3033 RMK AO2 SLP283 LAST T10441083
KSUX 120252Z 33014G23KT 10SM CLR M03/M07 A3030 RMK AO2 SLP272 T10331072 51035
KSUX 120152Z 34017KT 10SM CLR M02/M06 A3028 RMK AO2 SLP264 T10171061
KSUX 120052Z 33021G26KT 10SM CLR 00/M04 A3024 RMK AO2 PK WND 34027/0024 SLP249 T00001044
KSUX 112352Z 34020KT 10SM CLR 01/M04 A3020 RMK AO2 PK WND 33033/2312 SLP236 T00111044 10061 20011 53044
KSUX 112300Z 33024G34KT 10SM SCT029 02/M04 A3015 RMK AO2 PK WND 33032/2255 T00221039
KSUX 112252Z 33028G34KT 10SM BKN029 02/M04 A3014 RMK AO2 PK WND 34034/2202 SLP219 T00221039
KSUX 112241Z 34021G29KT 10SM BKN029 OVC035 03/M03 A3014 RMK AO2 PK WND 34034/2202 T00331028
KSUX 112152Z 34025G34KT 10SM OVC030 04/M03 A3011 RMK AO2 PK WND 35038/2129 SLP208 T00391028